createdAt,value
2023-04-17T00:02:40.116Z,7.53
2023-04-17T00:07:42.404Z,7.82
2023-04-17T00:12:44.267Z,7.78
2023-04-17T00:17:46.347Z,8.18
2023-04-17T00:22:48.103Z,8.02
2023-04-17T00:27:50.766Z,8.00
2023-04-17T00:32:52.835Z,8.60
2023-04-17T00:37:54.655Z,8.23
2023-04-17T00:43:03.902Z,7.30
2023-04-17T00:48:07.695Z,8.43
2023-04-17T00:53:09.705Z,8.68
2023-04-17T00:58:12.150Z,7.50
2023-04-17T01:03:14.711Z,7.55
2023-04-17T01:08:16.910Z,8.60
2023-04-17T01:13:19.157Z,7.22
2023-04-17T01:18:21.627Z,6.85
2023-04-17T01:23:23.409Z,7.07
2023-04-17T01:28:25.178Z,7.97
2023-04-17T01:33:27.093Z,8.65
2023-04-17T01:38:28.946Z,7.18
2023-04-17T01:43:30.747Z,6.88
2023-04-17T01:48:33.676Z,5.85
2023-04-17T01:53:36.252Z,6.05
2023-04-17T01:58:38.093Z,5.78
2023-04-17T02:03:40.107Z,4.78
2023-04-17T02:08:42.515Z,5.75
2023-04-17T02:13:44.295Z,5.68
2023-04-17T02:18:46.126Z,6.45
2023-04-17T02:23:47.967Z,6.72
2023-04-17T02:28:49.763Z,6.80
2023-04-17T02:33:51.694Z,6.85
2023-04-17T02:38:53.643Z,6.35
2023-04-17T02:43:56.788Z,5.72
2023-04-17T02:48:58.629Z,4.57
2023-04-17T02:54:00.569Z,4.72
2023-04-17T02:59:02.605Z,5.15
2023-04-17T03:04:04.859Z,5.25
2023-04-17T03:09:06.975Z,5.15
2023-04-17T03:14:10.082Z,4.63
2023-04-17T03:19:12.296Z,5.15
2023-04-17T03:24:14.291Z,4.13
2023-04-17T03:29:16.580Z,4.35
2023-04-17T03:34:19.161Z,4.95
2023-04-17T03:39:21.537Z,3.92
2023-04-17T03:44:23.414Z,4.63
2023-04-17T03:49:25.352Z,4.13
2023-04-17T03:54:27.512Z,4.03
2023-04-17T03:59:32.094Z,3.50
2023-04-17T04:04:34.199Z,3.97
2023-04-17T04:09:48.894Z,3.17
2023-04-17T04:14:51.541Z,3.83
2023-04-17T04:19:53.880Z,3.40
2023-04-17T04:24:56.162Z,3.03
2023-04-17T04:30:06.648Z,3.38
2023-04-17T04:35:12.768Z,3.05
2023-04-17T04:40:15.009Z,2.83
2023-04-17T04:45:17.551Z,2.40
2023-04-17T04:50:20.731Z,2.05
2023-04-17T04:55:23.039Z,2.50
2023-04-17T05:00:27.261Z,2.05
2023-04-17T05:05:32.557Z,2.08
2023-04-17T05:10:34.640Z,1.80
2023-04-17T05:15:39.347Z,1.50
2023-04-17T05:20:41.425Z,1.10
2023-04-17T05:25:44.019Z,1.27
2023-04-17T05:30:46.101Z,1.10
2023-04-17T05:35:57.655Z,1.02
2023-04-17T05:41:01.832Z,1.50
2023-04-17T05:46:03.895Z,1.80
2023-04-17T05:51:05.904Z,2.17
2023-04-17T05:56:08.164Z,2.13
2023-04-17T06:01:13.062Z,2.55
2023-04-17T06:06:14.955Z,2.78
2023-04-17T06:11:17.301Z,2.83
2023-04-17T06:16:19.942Z,3.50
2023-04-17T06:21:23.441Z,3.28
2023-04-17T06:26:25.236Z,3.47
2023-04-17T06:31:27.342Z,3.47
2023-04-17T06:36:29.254Z,4.05
2023-04-17T06:41:33.107Z,3.70
2023-04-17T06:46:35.965Z,4.05
2023-04-17T06:51:39.182Z,4.25
2023-04-17T06:56:41.080Z,3.22
2023-04-17T07:01:43.012Z,3.20
2023-04-17T07:06:44.835Z,3.25
2023-04-17T07:11:46.933Z,3.80
2023-04-17T07:16:49.236Z,3.97
2023-04-17T07:21:52.301Z,3.60
2023-04-17T07:26:55.085Z,3.88
2023-04-17T07:31:56.995Z,3.67
2023-04-17T07:36:58.903Z,3.65
2023-04-17T07:42:03.000Z,3.55
2023-04-17T07:47:04.968Z,3.15
2023-04-17T07:52:06.894Z,4.20
2023-04-17T07:57:08.783Z,3.70
2023-04-17T08:02:10.787Z,3.50
2023-04-17T08:07:13.178Z,4.00
2023-04-17T08:12:14.989Z,3.13
2023-04-17T08:17:20.314Z,3.22
2023-04-17T08:22:24.241Z,3.28
2023-04-17T08:27:26.451Z,3.28
2023-04-17T08:32:28.284Z,2.88
2023-04-17T08:37:32.133Z,2.90
2023-04-17T08:42:37.163Z,2.50
2023-04-17T08:47:40.634Z,2.70
2023-04-17T08:52:47.425Z,2.55
2023-04-17T08:58:01.039Z,1.90
2023-04-17T09:03:08.666Z,2.28
2023-04-17T09:08:15.159Z,1.85
2023-04-17T09:13:20.453Z,2.40
2023-04-17T09:18:33.589Z,2.75
2023-04-17T09:23:55.576Z,3.28
2023-04-17T09:29:11.388Z,3.35
2023-04-17T09:34:15.459Z,4.28
2023-04-17T09:39:24.084Z,4.78
2023-04-17T09:44:28.694Z,4.85
2023-04-17T09:49:49.882Z,4.80
2023-04-17T09:54:53.843Z,4.43
2023-04-17T09:59:59.673Z,4.55
2023-04-17T10:05:04.630Z,4.53
2023-04-17T10:10:10.836Z,4.95
2023-04-17T10:15:14.908Z,5.40
2023-04-17T10:20:18.103Z,5.90
2023-04-17T10:25:29.740Z,6.95
2023-04-17T10:30:52.434Z,6.72
2023-04-17T10:35:54.451Z,6.65
2023-04-17T10:40:56.341Z,6.82
2023-04-17T10:46:03.678Z,7.07
2023-04-17T10:51:27.817Z,6.82
2023-04-17T10:56:35.859Z,6.65
2023-04-17T11:01:37.750Z,5.72
2023-04-17T11:06:40.590Z,5.45
2023-04-17T11:11:45.066Z,5.13
2023-04-17T11:16:50.362Z,5.85
2023-04-17T11:21:54.219Z,4.80
2023-04-17T11:26:58.425Z,6.00
2023-04-17T11:32:01.280Z,5.65
2023-04-17T11:37:03.726Z,5.82
2023-04-17T11:42:05.694Z,6.05
2023-04-17T11:47:07.547Z,6.35
2023-04-17T11:52:11.059Z,5.90
2023-04-17T11:57:14.696Z,6.82
2023-04-17T12:02:16.716Z,5.97
2023-04-17T12:07:24.040Z,6.78
2023-04-17T12:12:25.851Z,5.80
2023-04-17T12:17:27.692Z,6.60
2023-04-17T12:22:30.461Z,6.50
2023-04-17T12:27:36.604Z,6.00
2023-04-17T12:32:39.735Z,7.32
2023-04-17T12:37:43.276Z,6.45
2023-04-17T12:42:49.114Z,6.38
2023-04-17T12:47:51.366Z,5.85
2023-04-17T12:52:55.022Z,6.85
2023-04-17T12:57:56.942Z,6.03
2023-04-17T13:02:59.115Z,6.35
2023-04-17T13:08:01.017Z,5.88
2023-04-17T13:13:04.740Z,6.88
2023-04-17T13:18:06.595Z,6.22
2023-04-17T13:23:11.896Z,6.72
2023-04-17T13:28:13.891Z,6.57
2023-04-17T13:33:15.864Z,10.82
2023-04-17T13:38:18.030Z,7.22
2023-04-17T13:43:19.828Z,7.00
2023-04-17T13:48:21.592Z,7.45
2023-04-17T13:53:23.383Z,8.82
2023-04-17T13:58:25.343Z,8.15
2023-04-17T14:03:27.728Z,7.68
2023-04-17T14:08:29.665Z,8.93
2023-04-17T14:13:31.524Z,8.70
2023-04-17T14:18:33.426Z,7.28
2023-04-17T14:23:35.420Z,9.52
2023-04-17T14:28:37.371Z,7.97
2023-04-17T14:33:39.177Z,7.53
2023-04-17T14:38:40.992Z,7.55
2023-04-17T14:43:42.945Z,9.00
2023-04-17T14:48:54.850Z,11.15
2023-04-17T14:53:57.948Z,10.00
2023-04-17T14:58:59.851Z,9.88
2023-04-17T15:04:02.180Z,9.52
2023-04-17T15:09:04.189Z,11.88
2023-04-17T15:14:06.049Z,11.73
2023-04-17T15:19:07.892Z,9.65
2023-04-17T15:24:09.969Z,9.02
2023-04-17T15:29:12.052Z,8.13
2023-04-17T15:34:14.381Z,8.43
2023-04-17T15:39:16.187Z,8.77
2023-04-17T15:44:18.177Z,7.95
2023-04-17T15:49:19.979Z,7.47
2023-04-17T15:54:21.796Z,7.95
2023-04-17T15:59:23.955Z,6.18
2023-04-17T16:04:25.895Z,7.50
2023-04-17T16:09:27.803Z,7.63
2023-04-17T16:14:29.617Z,8.52
2023-04-17T16:19:32.342Z,7.60
2023-04-17T16:24:34.132Z,6.82
2023-04-17T16:29:36.037Z,7.25
2023-04-17T16:34:37.847Z,10.48
2023-04-17T16:39:39.683Z,5.75
2023-04-17T16:44:41.778Z,4.93
2023-04-17T16:49:43.914Z,4.93
2023-04-17T16:54:45.939Z,5.40
2023-04-17T16:59:48.170Z,4.57
2023-04-17T17:04:50.538Z,5.70
2023-04-17T17:09:52.597Z,5.63
2023-04-17T17:14:54.451Z,4.57
2023-04-17T17:19:56.275Z,4.50
2023-04-17T17:24:58.108Z,4.68
2023-04-17T17:30:00.622Z,5.53
2023-04-17T17:35:05.352Z,5.30
2023-04-17T17:40:08.690Z,5.47
2023-04-17T17:45:13.059Z,5.15
2023-04-17T17:50:15.642Z,5.70
2023-04-17T17:55:17.926Z,5.70
2023-04-17T18:00:20.032Z,4.15
2023-04-17T18:05:22.027Z,5.15
2023-04-17T18:10:23.931Z,4.72
2023-04-17T18:15:26.049Z,4.85
2023-04-17T18:20:28.067Z,4.75
2023-04-17T18:25:30.100Z,5.20
2023-04-17T18:30:32.640Z,4.78
2023-04-17T18:35:34.641Z,5.25
2023-04-17T18:40:39.461Z,4.80
2023-04-17T18:45:41.379Z,4.72
2023-04-17T18:50:43.473Z,5.57
2023-04-17T18:55:45.492Z,5.40
2023-04-17T19:00:47.417Z,5.18
2023-04-17T19:05:54.206Z,5.20
2023-04-17T19:10:56.600Z,5.45
2023-04-17T19:15:58.407Z,5.43
2023-04-17T19:21:00.348Z,6.07
2023-04-17T19:26:02.109Z,5.25
2023-04-17T19:31:03.935Z,5.07
2023-04-17T19:36:05.837Z,6.00
2023-04-17T19:41:15.312Z,6.00
2023-04-17T19:46:18.424Z,8.30
2023-04-17T19:51:20.391Z,7.15
2023-04-17T19:56:22.236Z,7.63
2023-04-17T20:01:24.046Z,6.72
2023-04-17T20:06:26.913Z,6.70
2023-04-17T20:11:29.223Z,6.47
2023-04-17T20:16:33.006Z,6.95
2023-04-17T20:21:34.870Z,6.45
2023-04-17T20:26:37.585Z,6.30
2023-04-17T20:31:39.715Z,7.28
2023-04-17T20:36:41.578Z,6.80
2023-04-17T20:41:43.412Z,7.00
2023-04-17T20:46:45.728Z,6.93
2023-04-17T20:51:47.641Z,7.60
2023-04-17T20:56:49.390Z,7.88
2023-04-17T21:01:54.051Z,8.00
2023-04-17T21:06:56.039Z,8.35
2023-04-17T21:11:57.803Z,8.88
2023-04-17T21:17:00.400Z,8.52
2023-04-17T21:22:02.458Z,7.88
2023-04-17T21:27:04.345Z,8.15
2023-04-17T21:32:06.255Z,7.07
2023-04-17T21:37:08.038Z,6.50
2023-04-17T21:42:10.075Z,7.60
2023-04-17T21:47:12.312Z,8.30
2023-04-17T21:52:14.842Z,8.55
2023-04-17T21:57:16.631Z,8.80
2023-04-17T22:02:18.422Z,8.30
2023-04-17T22:07:21.630Z,8.60
2023-04-17T22:12:23.496Z,8.77
2023-04-17T22:17:25.405Z,9.32
2023-04-17T22:22:27.184Z,8.90
2023-04-17T22:27:29.255Z,9.95
2023-04-17T22:32:31.063Z,10.57
2023-04-17T22:37:32.904Z,8.23
2023-04-17T22:42:34.674Z,7.90
2023-04-17T22:47:36.536Z,9.30
2023-04-17T22:52:38.508Z,9.75
2023-04-17T22:57:40.764Z,9.75
2023-04-17T23:02:42.880Z,10.52
2023-04-17T23:07:45.224Z,8.73
2023-04-17T23:12:47.060Z,13.80
2023-04-17T23:17:49.061Z,14.02
2023-04-17T23:22:51.142Z,12.43
2023-04-17T23:27:52.971Z,13.18
2023-04-17T23:32:55.632Z,13.73
2023-04-17T23:37:57.524Z,13.23
2023-04-17T23:42:59.301Z,16.00
2023-04-17T23:48:01.638Z,15.70
2023-04-17T23:53:03.497Z,16.17
2023-04-17T23:58:05.378Z,21.25
